createdAt,value
2018-10-16T00:01:49.653Z,15.80
2018-10-16T00:04:18.197Z,15.90
2018-10-16T00:06:46.771Z,15.90
2018-10-16T00:09:15.287Z,15.80
2018-10-16T00:11:57.968Z,15.80
2018-10-16T00:14:27.204Z,15.80
2018-10-16T00:16:55.801Z,15.80
2018-10-16T00:19:24.372Z,15.80
2018-10-16T00:21:53.007Z,15.80
2018-10-16T00:24:22.077Z,15.80
2018-10-16T00:26:50.808Z,15.80
2018-10-16T00:29:19.628Z,15.80
2018-10-16T00:31:48.199Z,15.80
2018-10-16T00:34:16.823Z,15.80
2018-10-16T00:36:45.479Z,15.80
2018-10-16T00:39:15.306Z,15.80
2018-10-16T00:41:44.156Z,15.80
2018-10-16T00:44:13.456Z,15.90
2018-10-16T00:46:42.108Z,15.90
2018-10-16T00:49:10.730Z,15.70
2018-10-16T00:51:40.408Z,15.90
2018-10-16T00:54:09.497Z,15.90
2018-10-16T00:56:38.340Z,15.90
2018-10-16T00:59:07.186Z,15.90
2018-10-16T01:01:36.014Z,15.80
2018-10-16T01:04:05.843Z,15.80
2018-10-16T01:06:35.429Z,15.70
2018-10-16T01:09:07.971Z,15.60
2018-10-16T01:11:36.778Z,15.60
2018-10-16T01:14:06.510Z,15.60
2018-10-16T01:16:35.085Z,15.50
2018-10-16T01:19:03.800Z,15.60
2018-10-16T01:21:32.357Z,15.60
2018-10-16T01:24:00.947Z,15.60
2018-10-16T01:26:29.497Z,15.60
2018-10-16T01:28:58.059Z,15.60
2018-10-16T01:31:26.783Z,15.60
2018-10-16T01:33:55.421Z,15.60
2018-10-16T01:36:23.951Z,15.60
2018-10-16T01:38:52.516Z,15.60
2018-10-16T01:41:21.225Z,15.60
2018-10-16T01:43:49.764Z,15.60
2018-10-16T01:46:18.404Z,15.60
2018-10-16T01:48:46.914Z,15.60
2018-10-16T01:51:15.545Z,15.60
2018-10-16T01:53:44.189Z,15.60
2018-10-16T01:56:12.766Z,15.60
2018-10-16T01:58:41.296Z,15.60
2018-10-16T02:01:10.004Z,15.60
2018-10-16T02:03:38.582Z,15.60
2018-10-16T02:06:07.149Z,15.60
2018-10-16T02:08:35.752Z,15.60
2018-10-16T02:11:05.160Z,15.50
2018-10-16T02:13:33.740Z,15.50
2018-10-16T02:16:02.276Z,15.50
2018-10-16T02:18:30.909Z,15.40
2018-10-16T02:20:59.535Z,15.40
2018-10-16T02:23:28.108Z,15.40
2018-10-16T02:25:56.796Z,15.40
2018-10-16T02:28:25.972Z,15.40
2018-10-16T02:30:54.651Z,15.40
2018-10-16T02:33:23.200Z,15.30
2018-10-16T02:35:51.840Z,15.30
2018-10-16T02:38:20.447Z,15.30
2018-10-16T02:40:49.135Z,15.20
2018-10-16T02:43:17.671Z,15.20
2018-10-16T02:45:46.281Z,15.20
2018-10-16T02:48:14.836Z,15.20
2018-10-16T02:50:44.207Z,15.20
2018-10-16T02:53:12.771Z,15.20
2018-10-16T02:55:41.296Z,15.20
2018-10-16T02:58:09.918Z,15.20
2018-10-16T03:00:38.516Z,15.20
2018-10-16T03:03:07.147Z,15.10
2018-10-16T03:05:35.741Z,15.10
2018-10-16T03:08:06.312Z,15.10
2018-10-16T03:10:34.888Z,15.20
2018-10-16T03:13:03.436Z,15.20
2018-10-16T03:15:32.370Z,15.20
2018-10-16T03:18:01.093Z,15.20
2018-10-16T03:20:29.641Z,15.20
2018-10-16T03:22:58.138Z,15.20
2018-10-16T03:25:26.711Z,15.20
2018-10-16T03:27:55.328Z,15.20
2018-10-16T03:30:24.014Z,15.20
2018-10-16T03:32:52.819Z,15.10
2018-10-16T03:35:21.397Z,15.10
2018-10-16T03:37:49.994Z,15.10
2018-10-16T03:40:18.637Z,15.00
2018-10-16T03:42:47.296Z,15.00
2018-10-16T03:45:15.880Z,15.00
2018-10-16T03:47:44.606Z,15.00
2018-10-16T03:50:12.997Z,15.00
2018-10-16T03:52:41.725Z,15.00
2018-10-16T03:55:10.346Z,15.00
2018-10-16T03:57:38.972Z,15.00
2018-10-16T04:00:08.442Z,14.90
2018-10-16T04:02:36.984Z,14.90
2018-10-16T04:05:05.875Z,14.90
2018-10-16T04:07:34.462Z,14.80
2018-10-16T04:10:04.149Z,14.90
2018-10-16T04:12:32.795Z,14.80
2018-10-16T04:15:01.372Z,14.80
2018-10-16T04:17:29.943Z,14.80
2018-10-16T04:19:58.551Z,14.80
2018-10-16T04:22:27.223Z,14.80
2018-10-16T04:24:55.906Z,14.70
2018-10-16T04:27:24.495Z,14.70
2018-10-16T04:29:53.071Z,14.70
2018-10-16T04:32:21.761Z,14.70
2018-10-16T04:34:50.360Z,14.70
2018-10-16T04:37:18.917Z,14.70
2018-10-16T04:39:47.520Z,14.70
2018-10-16T04:42:16.176Z,14.80
2018-10-16T04:44:44.785Z,14.80
2018-10-16T04:47:13.331Z,14.80
2018-10-16T04:49:41.962Z,14.80
2018-10-16T04:52:10.663Z,14.90
2018-10-16T04:54:39.394Z,14.90
2018-10-16T04:57:08.118Z,14.90
2018-10-16T04:59:36.642Z,14.90
2018-10-16T05:02:05.494Z,15.00
2018-10-16T05:04:36.024Z,15.00
2018-10-16T05:07:04.788Z,15.00
2018-10-16T05:09:33.464Z,15.00
2018-10-16T05:12:02.278Z,15.00
2018-10-16T05:14:30.834Z,15.00
2018-10-16T05:16:59.576Z,15.00
2018-10-16T05:19:28.122Z,15.10
2018-10-16T05:21:56.892Z,15.00
2018-10-16T05:24:25.521Z,15.00
2018-10-16T05:26:54.210Z,15.10
2018-10-16T05:29:22.863Z,15.10
2018-10-16T05:31:51.463Z,15.00
2018-10-16T05:34:20.139Z,15.00
2018-10-16T05:36:49.564Z,15.00
2018-10-16T05:39:18.222Z,15.00
2018-10-16T05:41:46.898Z,15.00
2018-10-16T05:44:15.585Z,14.90
2018-10-16T05:46:44.240Z,14.90
2018-10-16T05:49:12.961Z,14.90
2018-10-16T05:51:41.665Z,14.90
2018-10-16T05:54:10.374Z,14.90
2018-10-16T05:56:38.993Z,14.90
2018-10-16T05:59:07.533Z,14.90
2018-10-16T06:01:36.191Z,14.90
2018-10-16T06:04:04.934Z,14.90
2018-10-16T06:06:33.556Z,14.90
2018-10-16T06:09:02.248Z,14.90
2018-10-16T06:11:30.969Z,14.90
2018-10-16T06:13:59.623Z,14.90
2018-10-16T06:16:28.620Z,14.90
2018-10-16T06:18:57.828Z,14.90
2018-10-16T06:21:26.481Z,15.00
2018-10-16T06:23:55.147Z,15.00
2018-10-16T06:26:24.426Z,15.00
2018-10-16T06:28:53.179Z,15.00
2018-10-16T06:31:21.918Z,14.90
2018-10-16T06:33:50.608Z,16.40
2018-10-16T06:36:19.313Z,14.90
2018-10-16T06:38:47.914Z,14.90
2018-10-16T06:41:16.745Z,14.90
2018-10-16T06:43:45.294Z,14.90
2018-10-16T06:46:13.974Z,14.90
2018-10-16T06:48:42.908Z,14.80
2018-10-16T06:51:11.192Z,14.80
2018-10-16T06:53:39.815Z,14.80
2018-10-16T06:56:08.434Z,14.70
2018-10-16T06:58:37.088Z,14.70
2018-10-16T07:01:07.753Z,14.70
2018-10-16T07:03:36.510Z,14.70
2018-10-16T07:06:05.373Z,14.70
2018-10-16T07:08:34.274Z,14.70
2018-10-16T07:11:03.153Z,14.70
2018-10-16T07:13:33.892Z,14.70
2018-10-16T07:16:02.725Z,14.70
2018-10-16T07:18:31.543Z,14.70
2018-10-16T07:21:01.457Z,14.70
2018-10-16T07:23:30.317Z,14.70
2018-10-16T07:25:59.139Z,14.70
2018-10-16T07:28:28.097Z,14.80
2018-10-16T07:30:58.685Z,14.80
2018-10-16T07:33:27.590Z,14.80
2018-10-16T07:35:57.184Z,14.80
2018-10-16T07:38:26.834Z,14.90
2018-10-16T07:40:55.510Z,14.90
2018-10-16T07:43:24.386Z,15.00
2018-10-16T07:45:53.104Z,15.00
2018-10-16T07:48:21.946Z,15.10
2018-10-16T07:50:50.865Z,15.20
2018-10-16T07:53:21.337Z,15.20
2018-10-16T07:55:51.103Z,15.30
2018-10-16T07:58:19.848Z,15.30
2018-10-16T08:00:48.754Z,15.40
2018-10-16T08:03:17.622Z,15.40
2018-10-16T08:05:46.360Z,15.50
2018-10-16T08:08:16.073Z,15.60
2018-10-16T08:10:45.416Z,15.70
2018-10-16T08:13:14.244Z,15.80
2018-10-16T08:15:43.060Z,15.80
2018-10-16T08:18:12.750Z,15.90
2018-10-16T08:20:41.705Z,16.00
2018-10-16T08:23:10.446Z,16.10
2018-10-16T08:25:39.447Z,16.20
2018-10-16T08:28:08.413Z,16.30
2018-10-16T08:30:37.338Z,16.40
2018-10-16T08:33:06.557Z,16.40
2018-10-16T08:35:37.238Z,16.50
2018-10-16T08:39:17.425Z,16.60
2018-10-16T08:42:56.043Z,16.70
2018-10-16T08:45:36.127Z,16.80
2018-10-16T08:48:20.236Z,16.90
2018-10-16T08:51:02.173Z,16.90
2018-10-16T08:53:38.113Z,17.00
2018-10-16T08:56:06.833Z,17.10
2018-10-16T08:58:35.452Z,17.20
2018-10-16T09:01:04.053Z,17.40
2018-10-16T09:03:32.592Z,17.50
2018-10-16T09:06:01.436Z,17.60
2018-10-16T09:08:30.184Z,17.70
2018-10-16T09:10:58.764Z,17.90
2018-10-16T09:13:27.525Z,18.00
2018-10-16T09:15:56.089Z,18.20
2018-10-16T09:18:24.979Z,18.30
2018-10-16T09:20:53.757Z,18.40
2018-10-16T09:23:22.520Z,18.40
2018-10-16T09:25:51.448Z,18.40
2018-10-16T09:28:20.154Z,18.50
2018-10-16T09:30:48.979Z,18.50
2018-10-16T09:33:17.837Z,18.60
2018-10-16T09:35:46.433Z,18.60
2018-10-16T09:38:14.965Z,18.60
2018-10-16T09:40:43.535Z,18.60
2018-10-16T09:43:12.118Z,18.60
2018-10-16T09:45:40.838Z,18.70
2018-10-16T09:48:09.626Z,18.70
2018-10-16T09:50:38.379Z,18.70
2018-10-16T09:53:07.493Z,18.90
2018-10-16T09:55:36.065Z,19.00
2018-10-16T09:58:06.026Z,19.10
2018-10-16T10:00:40.123Z,19.10
2018-10-16T10:03:08.735Z,19.20
2018-10-16T10:05:38.185Z,19.20
2018-10-16T10:08:07.006Z,19.20
2018-10-16T10:10:35.595Z,19.20
2018-10-16T10:13:04.303Z,19.10
2018-10-16T10:15:33.585Z,19.10
2018-10-16T10:18:02.178Z,19.20
2018-10-16T10:20:31.484Z,19.30
2018-10-16T10:23:00.036Z,19.30
2018-10-16T10:25:28.649Z,19.40
2018-10-16T10:27:57.238Z,19.50
2018-10-16T10:30:25.748Z,19.50
2018-10-16T10:32:54.413Z,19.60
2018-10-16T10:35:23.018Z,19.70
2018-10-16T10:37:51.627Z,19.70
2018-10-16T10:40:20.177Z,19.80
2018-10-16T10:42:48.835Z,19.90
2018-10-16T10:45:17.454Z,20.00
2018-10-16T10:47:46.041Z,20.10
2018-10-16T10:50:15.056Z,20.20
2018-10-16T10:52:43.562Z,20.20
2018-10-16T10:55:12.207Z,20.40
2018-10-16T10:57:41.190Z,20.50
2018-10-16T11:00:12.885Z,20.60
2018-10-16T11:02:42.371Z,20.70
2018-10-16T11:05:11.653Z,20.70
2018-10-16T11:07:40.307Z,20.70
2018-10-16T11:10:11.585Z,20.70
2018-10-16T11:12:40.701Z,20.90
2018-10-16T11:15:09.503Z,20.90
2018-10-16T11:17:39.573Z,20.90
2018-10-16T11:20:10.115Z,21.00
2018-10-16T11:22:38.924Z,21.00
2018-10-16T11:25:08.951Z,21.00
2018-10-16T11:27:37.925Z,20.90
2018-10-16T11:30:09.227Z,20.90
2018-10-16T11:32:38.265Z,21.00
2018-10-16T11:35:08.165Z,21.00
2018-10-16T11:37:36.840Z,21.00
2018-10-16T11:40:05.548Z,21.00
2018-10-16T11:42:34.258Z,21.10
2018-10-16T11:45:03.040Z,21.10
2018-10-16T11:47:31.789Z,21.10
2018-10-16T11:50:00.476Z,21.10
2018-10-16T11:52:30.368Z,21.20
2018-10-16T11:54:59.876Z,21.20
2018-10-16T11:57:28.520Z,21.20
2018-10-16T11:59:57.091Z,21.20
2018-10-16T12:02:25.752Z,21.30
2018-10-16T12:04:54.553Z,21.40
2018-10-16T12:07:23.232Z,21.50
2018-10-16T12:09:51.810Z,21.50
2018-10-16T12:12:20.443Z,21.60
2018-10-16T12:14:49.603Z,21.60
2018-10-16T12:17:37.010Z,21.60
2018-10-16T12:20:14.332Z,21.60
2018-10-16T12:22:42.993Z,21.70
2018-10-16T12:25:11.637Z,21.70
2018-10-16T12:27:40.820Z,21.80
2018-10-16T12:30:09.904Z,21.80
2018-10-16T12:32:38.633Z,21.90
2018-10-16T12:35:07.609Z,21.90
2018-10-16T12:37:36.213Z,21.90
2018-10-16T12:40:12.206Z,22.00
2018-10-16T12:42:40.748Z,22.10
2018-10-16T12:45:09.497Z,22.10
2018-10-16T12:47:38.987Z,22.20
2018-10-16T12:50:07.560Z,22.20
2018-10-16T12:52:36.261Z,22.30
2018-10-16T12:55:06.473Z,22.40
2018-10-16T12:57:35.065Z,22.40
2018-10-16T13:00:03.767Z,22.40
2018-10-16T13:02:32.387Z,22.50
2018-10-16T13:05:00.936Z,22.50
2018-10-16T13:07:35.783Z,22.60
2018-10-16T13:10:07.427Z,22.60
2018-10-16T13:12:36.146Z,22.60
2018-10-16T13:15:05.509Z,22.60
2018-10-16T13:17:34.187Z,22.70
2018-10-16T13:20:02.841Z,22.70
2018-10-16T13:22:31.662Z,22.70
2018-10-16T13:25:00.253Z,22.80
2018-10-16T13:27:28.932Z,22.80
2018-10-16T13:29:57.887Z,22.80
2018-10-16T13:32:26.524Z,22.90
2018-10-16T13:34:55.131Z,22.90
2018-10-16T13:37:23.840Z,22.90
2018-10-16T13:39:52.620Z,23.00
2018-10-16T13:42:21.387Z,23.00
2018-10-16T13:44:50.659Z,23.00
2018-10-16T13:47:19.218Z,23.00
2018-10-16T13:49:47.726Z,22.90
2018-10-16T13:52:16.383Z,22.80
2018-10-16T13:54:45.088Z,22.70
2018-10-16T13:57:13.700Z,22.60
2018-10-16T13:59:42.348Z,22.40
2018-10-16T14:02:11.094Z,22.40
2018-10-16T14:04:39.663Z,22.30
2018-10-16T14:07:08.262Z,22.20
2018-10-16T14:09:37.077Z,22.20
2018-10-16T14:12:06.339Z,22.10
2018-10-16T14:14:35.027Z,22.10
2018-10-16T14:17:03.646Z,22.10
2018-10-16T14:19:32.380Z,22.10
2018-10-16T14:22:01.275Z,22.10
2018-10-16T14:24:30.096Z,22.10
2018-10-16T14:26:59.840Z,22.10
2018-10-16T14:29:28.695Z,22.10
2018-10-16T14:31:58.021Z,22.10
2018-10-16T14:34:26.744Z,21.90
2018-10-16T14:36:55.877Z,21.80
2018-10-16T14:39:24.474Z,21.70
2018-10-16T14:41:53.325Z,21.60
2018-10-16T14:44:22.859Z,21.50
2018-10-16T14:46:51.488Z,21.50
2018-10-16T14:49:20.188Z,21.40
2018-10-16T14:51:48.844Z,21.50
2018-10-16T14:54:18.344Z,21.50
2018-10-16T14:56:47.009Z,21.60
2018-10-16T14:59:15.748Z,21.80
2018-10-16T15:01:44.909Z,21.90
2018-10-16T15:04:13.675Z,22.00
2018-10-16T15:06:42.223Z,22.10
2018-10-16T15:09:11.284Z,22.20
2018-10-16T15:11:40.576Z,22.40
2018-10-16T15:14:10.106Z,22.40
2018-10-16T15:16:39.768Z,22.40
2018-10-16T15:19:08.408Z,22.40
2018-10-16T15:21:36.942Z,22.30
2018-10-16T15:24:05.882Z,22.20
2018-10-16T15:26:34.470Z,22.10
2018-10-16T15:29:03.090Z,22.10
2018-10-16T15:31:31.728Z,22.00
2018-10-16T15:34:00.321Z,21.90
2018-10-16T15:36:28.970Z,21.80
2018-10-16T15:38:57.576Z,21.70
2018-10-16T15:41:26.164Z,21.60
2018-10-16T15:43:54.743Z,21.50
2018-10-16T15:46:23.327Z,21.40
2018-10-16T15:48:51.915Z,21.30
2018-10-16T15:51:20.609Z,21.30
2018-10-16T15:53:49.286Z,21.20
2018-10-16T15:56:18.066Z,21.10
2018-10-16T15:58:46.740Z,21.10
2018-10-16T16:01:15.553Z,21.00
2018-10-16T16:03:44.935Z,20.90
2018-10-16T16:06:13.672Z,20.90
2018-10-16T16:08:42.337Z,20.80
2018-10-16T16:11:11.112Z,20.70
2018-10-16T16:13:39.749Z,20.70
2018-10-16T16:16:08.324Z,20.60
2018-10-16T16:18:37.833Z,20.40
2018-10-16T16:21:06.772Z,20.30
2018-10-16T16:23:35.292Z,20.10
2018-10-16T16:26:03.981Z,20.00
2018-10-16T16:28:32.857Z,19.90
2018-10-16T16:31:01.527Z,19.80
2018-10-16T16:33:30.170Z,19.70
2018-10-16T16:35:59.791Z,19.60
2018-10-16T16:38:28.360Z,19.50
2018-10-16T16:40:57.121Z,19.40
2018-10-16T16:43:25.731Z,19.40
2018-10-16T16:45:54.396Z,19.30
2018-10-16T16:48:22.963Z,19.30
2018-10-16T16:50:51.608Z,19.20
2018-10-16T16:53:20.176Z,19.10
2018-10-16T16:55:48.754Z,19.00
2018-10-16T16:58:17.340Z,19.00
2018-10-16T17:00:46.053Z,18.90
2018-10-16T17:03:14.758Z,18.90
2018-10-16T17:05:43.346Z,18.90
2018-10-16T17:08:11.950Z,18.90
2018-10-16T17:10:40.609Z,18.80
2018-10-16T17:13:09.284Z,18.80
2018-10-16T17:15:37.858Z,18.80
2018-10-16T17:18:06.433Z,18.70
2018-10-16T17:20:35.119Z,18.70
2018-10-16T17:23:03.823Z,18.60
2018-10-16T17:25:32.575Z,18.60
2018-10-16T17:28:01.044Z,18.50
2018-10-16T17:30:30.964Z,18.50
2018-10-16T17:32:59.732Z,18.50
2018-10-16T17:35:28.491Z,18.40
2018-10-16T17:37:58.077Z,18.40
2018-10-16T17:40:27.513Z,18.40
2018-10-16T17:42:56.314Z,18.40
2018-10-16T17:45:25.001Z,18.40
2018-10-16T17:47:53.847Z,18.30
2018-10-16T17:50:22.368Z,18.30
2018-10-16T17:52:53.850Z,18.20
2018-10-16T17:55:23.522Z,18.20
2018-10-16T17:57:52.121Z,18.10
2018-10-16T18:00:20.661Z,18.10
2018-10-16T18:02:49.280Z,18.00
2018-10-16T18:05:18.076Z,18.00
2018-10-16T18:07:46.839Z,17.90
2018-10-16T18:10:15.475Z,18.00
2018-10-16T18:12:44.254Z,17.90
2018-10-16T18:15:13.880Z,17.90
2018-10-16T18:17:43.177Z,17.90
2018-10-16T18:20:13.616Z,17.90
2018-10-16T18:22:42.332Z,17.90
2018-10-16T18:25:11.685Z,17.80
2018-10-16T18:27:40.705Z,17.80
2018-10-16T18:30:09.885Z,17.80
2018-10-16T18:32:38.874Z,17.80
2018-10-16T18:35:07.592Z,17.70
2018-10-16T18:37:36.780Z,17.60
2018-10-16T18:40:07.336Z,17.60
2018-10-16T18:42:35.964Z,17.60
2018-10-16T18:45:05.109Z,17.60
2018-10-16T18:47:33.720Z,17.60
2018-10-16T18:50:02.877Z,17.50
2018-10-16T18:52:31.595Z,17.50
2018-10-16T18:55:00.566Z,17.50
2018-10-16T18:57:29.876Z,17.40
2018-10-16T18:59:58.565Z,17.40
2018-10-16T19:02:27.243Z,17.40
2018-10-16T19:04:55.976Z,17.40
2018-10-16T19:07:24.625Z,17.30
2018-10-16T19:09:53.331Z,17.30
2018-10-16T19:12:22.080Z,17.30
2018-10-16T19:14:50.677Z,17.20
2018-10-16T19:17:19.883Z,17.20
2018-10-16T19:19:48.555Z,17.20
2018-10-16T19:22:17.822Z,17.20
2018-10-16T19:24:46.401Z,17.20
2018-10-16T19:27:14.954Z,17.20
2018-10-16T19:29:43.471Z,17.20
2018-10-16T19:32:12.077Z,17.20
2018-10-16T19:34:40.635Z,17.20
2018-10-16T19:37:09.214Z,17.20
2018-10-16T19:39:37.838Z,17.20
2018-10-16T19:42:07.479Z,17.20
2018-10-16T19:44:36.070Z,17.20
2018-10-16T19:47:04.973Z,17.30
2018-10-16T19:49:33.685Z,17.30
2018-10-16T19:52:02.458Z,17.30
2018-10-16T19:54:31.134Z,17.30
2018-10-16T19:56:59.752Z,17.20
2018-10-16T19:59:28.410Z,17.20
2018-10-16T20:01:57.037Z,17.10
2018-10-16T20:04:25.587Z,17.10
2018-10-16T20:06:54.168Z,17.10
2018-10-16T20:09:23.384Z,17.10
2018-10-16T20:11:52.019Z,17.10
2018-10-16T20:14:20.763Z,17.10
2018-10-16T20:16:49.325Z,17.10
2018-10-16T20:19:17.936Z,17.10
2018-10-16T20:21:46.596Z,17.00
2018-10-16T20:24:15.166Z,17.20
2018-10-16T20:26:43.750Z,17.20
2018-10-16T20:29:12.336Z,17.30
2018-10-16T20:31:41.045Z,17.30
2018-10-16T20:34:09.657Z,17.30
2018-10-16T20:36:38.520Z,17.30
2018-10-16T20:39:10.189Z,17.40
2018-10-16T20:41:39.146Z,17.40
2018-10-16T20:44:07.822Z,17.40
2018-10-16T20:46:36.543Z,17.40
2018-10-16T20:49:05.765Z,17.40
2018-10-16T20:51:34.670Z,17.40
2018-10-16T20:54:03.446Z,17.30
2018-10-16T20:56:32.573Z,17.30
2018-10-16T20:59:01.300Z,17.30
2018-10-16T21:01:29.989Z,17.20
2018-10-16T21:03:58.504Z,17.20
2018-10-16T21:06:27.176Z,17.20
2018-10-16T21:08:55.808Z,17.20
2018-10-16T21:11:24.465Z,17.20
2018-10-16T21:13:53.068Z,17.20
2018-10-16T21:16:21.734Z,17.20
2018-10-16T21:18:50.434Z,17.20
2018-10-16T21:21:19.125Z,17.10
2018-10-16T21:23:47.769Z,17.10
2018-10-16T21:26:16.481Z,17.20
2018-10-16T21:28:45.110Z,17.10
2018-10-16T21:31:13.853Z,17.10
2018-10-16T21:33:42.564Z,17.10
2018-10-16T21:36:11.131Z,17.10
2018-10-16T21:38:39.726Z,17.20
2018-10-16T21:41:08.442Z,17.20
2018-10-16T21:43:37.012Z,17.20
2018-10-16T21:46:06.061Z,17.20
2018-10-16T21:48:34.667Z,17.20
2018-10-16T21:51:03.382Z,17.20
2018-10-16T21:53:32.063Z,17.20
2018-10-16T21:56:00.727Z,17.20
2018-10-16T21:58:29.391Z,17.20
2018-10-16T22:01:03.331Z,17.20
2018-10-16T22:03:32.767Z,17.20
2018-10-16T22:06:01.376Z,17.10
2018-10-16T22:08:29.885Z,17.10
2018-10-16T22:10:58.567Z,17.20
2018-10-16T22:13:27.154Z,17.20
2018-10-16T22:15:55.725Z,17.10
2018-10-16T22:18:24.279Z,17.20
2018-10-16T22:20:53.193Z,17.20
2018-10-16T22:23:21.887Z,17.10
2018-10-16T22:25:50.504Z,17.10
2018-10-16T22:28:19.099Z,17.10
2018-10-16T22:30:47.886Z,17.10
2018-10-16T22:33:16.446Z,17.00
2018-10-16T22:35:45.159Z,17.00
2018-10-16T22:38:13.824Z,17.00
2018-10-16T22:40:42.475Z,17.00
2018-10-16T22:43:11.185Z,16.90
2018-10-16T22:45:39.710Z,16.90
2018-10-16T22:48:08.259Z,17.00
2018-10-16T22:50:36.819Z,17.00
2018-10-16T22:53:05.561Z,17.00
2018-10-16T22:55:34.163Z,17.00
2018-10-16T22:58:02.973Z,17.00
2018-10-16T23:00:31.547Z,17.00
2018-10-16T23:03:00.144Z,17.00
2018-10-16T23:05:28.770Z,17.00
2018-10-16T23:07:57.383Z,16.90
2018-10-16T23:10:26.022Z,16.90
2018-10-16T23:13:05.004Z,16.90
2018-10-16T23:15:33.470Z,16.80
2018-10-16T23:18:02.522Z,16.80
2018-10-16T23:20:32.078Z,16.70
2018-10-16T23:23:00.619Z,16.70
2018-10-16T23:25:29.228Z,16.70
2018-10-16T23:27:57.823Z,16.70
2018-10-16T23:30:26.373Z,16.70
2018-10-16T23:32:55.023Z,16.60
2018-10-16T23:35:23.667Z,16.60
2018-10-16T23:40:34.188Z,16.60
2018-10-16T23:43:03.350Z,16.50
2018-10-16T23:45:31.840Z,16.50
2018-10-16T23:48:00.423Z,16.50
2018-10-16T23:50:28.963Z,16.50
2018-10-16T23:52:57.602Z,16.60
2018-10-16T23:55:26.228Z,16.60
2018-10-16T23:57:54.919Z,16.50
